sensor_id;sensor_type;location;lat;lon;timestamp;pressure;altitude;pressure_sealevel;temperature;humidity
20630;BME280;17386;43.846;25.950;2022-08-04T00:11:08;101242.34;;;25.35;56.40
20630;BME280;17386;43.846;25.950;2022-08-04T00:13:37;101239.50;;;25.37;56.67
20630;BME280;17386;43.846;25.950;2022-08-04T00:16:06;101249.81;;;25.33;57.28
20630;BME280;17386;43.846;25.950;2022-08-04T00:18:58;101245.22;;;25.34;56.65
20630;BME280;17386;43.846;25.950;2022-08-04T00:21:26;101249.34;;;25.28;56.46
20630;BME280;17386;43.846;25.950;2022-08-04T00:23:54;101242.59;;;25.23;54.45
20630;BME280;17386;43.846;25.950;2022-08-04T00:26:21;101256.34;;;25.21;53.87
20630;BME280;17386;43.846;25.950;2022-08-04T00:28:47;101260.91;;;25.21;53.72
20630;BME280;17386;43.846;25.950;2022-08-04T00:31:15;101259.06;;;25.21;53.14
20630;BME280;17386;43.846;25.950;2022-08-04T00:33:45;101260.47;;;25.16;52.65
20630;BME280;17386;43.846;25.950;2022-08-04T00:36:11;101259.44;;;25.17;51.92
20630;BME280;17386;43.846;25.950;2022-08-04T00:38:40;101258.13;;;25.11;51.90
20630;BME280;17386;43.846;25.950;2022-08-04T01:05:55;101272.94;;;24.76;51.05
20630;BME280;17386;43.846;25.950;2022-08-04T01:19:59;101272.34;;;24.73;51.74
20630;BME280;17386;43.846;25.950;2022-08-04T01:30:34;101270.56;;;24.62;53.53
20630;BME280;17386;43.846;25.950;2022-08-04T01:33:07;101269.97;;;24.59;53.68
20630;BME280;17386;43.846;25.950;2022-08-04T01:40:36;101275.41;;;24.59;54.59
20630;BME280;17386;43.846;25.950;2022-08-04T01:43:04;101253.34;;;24.52;54.80
20630;BME280;17386;43.846;25.950;2022-08-04T01:45:29;101267.41;;;24.57;55.29
20630;BME280;17386;43.846;25.950;2022-08-04T01:47:56;101246.19;;;24.51;55.50
20630;BME280;17386;43.846;25.950;2022-08-04T01:50:23;101266.66;;;24.55;55.82
20630;BME280;17386;43.846;25.950;2022-08-04T01:52:54;101264.22;;;24.52;56.17
20630;BME280;17386;43.846;25.950;2022-08-04T01:55:20;101263.06;;;24.54;56.23
20630;BME280;17386;43.846;25.950;2022-08-04T01:57:50;101257.78;;;24.53;56.48
20630;BME280;17386;43.846;25.950;2022-08-04T02:00:22;101258.78;;;24.52;56.70
20630;BME280;17386;43.846;25.950;2022-08-04T02:02:53;101260.75;;;24.50;56.94
20630;BME280;17386;43.846;25.950;2022-08-04T02:05:25;101252.22;;;24.54;56.96
20630;BME280;17386;43.846;25.950;2022-08-04T02:08:29;101256.78;;;24.54;56.99
20630;BME280;17386;43.846;25.950;2022-08-04T02:11:17;101254.34;;;24.51;57.38
20630;BME280;17386;43.846;25.950;2022-08-04T02:16:49;101248.97;;;24.40;57.54
20630;BME280;17386;43.846;25.950;2022-08-04T02:19:35;101251.53;;;24.41;57.60
20630;BME280;17386;43.846;25.950;2022-08-04T02:22:09;101246.25;;;24.40;57.53
20630;BME280;17386;43.846;25.950;2022-08-04T02:24:48;101244.53;;;24.39;57.75
20630;BME280;17386;43.846;25.950;2022-08-04T02:27:15;101250.53;;;24.42;57.60
20630;BME280;17386;43.846;25.950;2022-08-04T02:30:05;101249.97;;;24.39;57.74
20630;BME280;17386;43.846;25.950;2022-08-04T02:32:32;101244.53;;;24.39;57.94
20630;BME280;17386;43.846;25.950;2022-08-04T02:35:27;101248.81;;;24.41;57.90
20630;BME280;17386;43.846;25.950;2022-08-04T02:38:10;101254.13;;;24.43;58.10
20630;BME280;17386;43.846;25.950;2022-08-04T02:40:38;101246.72;;;24.45;57.68
20630;BME280;17386;43.846;25.950;2022-08-04T02:43:07;101245.72;;;24.46;57.99
20630;BME280;17386;43.846;25.950;2022-08-04T02:45:40;101244.16;;;24.43;58.01
20630;BME280;17386;43.846;25.950;2022-08-04T02:48:09;101245.00;;;24.44;57.96
20630;BME280;17386;43.846;25.950;2022-08-04T02:50:38;101243.00;;;24.46;58.05
20630;BME280;17386;43.846;25.950;2022-08-04T02:53:07;101243.00;;;24.46;58.00
20630;BME280;17386;43.846;25.950;2022-08-04T02:55:40;101241.53;;;24.42;58.23
20630;BME280;17386;43.846;25.950;2022-08-04T02:58:09;101247.72;;;24.44;58.22
20630;BME280;17386;43.846;25.950;2022-08-04T03:00:39;101245.13;;;24.42;58.55
20630;BME280;17386;43.846;25.950;2022-08-04T03:45:04;101266.56;;;24.13;60.54
20630;BME280;17386;43.846;25.950;2022-08-04T04:03:05;101273.00;;;24.12;60.91
20630;BME280;17386;43.846;25.950;2022-08-04T04:14:47;101285.28;;;24.27;60.94
20630;BME280;17386;43.846;25.950;2022-08-04T04:29:57;101296.19;;;24.48;60.93
20630;BME280;17386;43.846;25.950;2022-08-04T04:35:09;101279.13;;;24.58;60.42
20630;BME280;17386;43.846;25.950;2022-08-04T04:46:41;101294.47;;;24.89;60.32
20630;BME280;17386;43.846;25.950;2022-08-04T04:52:39;101297.34;;;25.08;59.66
20630;BME280;17386;43.846;25.950;2022-08-04T04:55:27;101298.25;;;25.19;59.75
20630;BME280;17386;43.846;25.950;2022-08-04T04:57:57;101295.84;;;25.25;59.18
20630;BME280;17386;43.846;25.950;2022-08-04T05:00:37;101306.78;;;25.35;59.09
20630;BME280;17386;43.846;25.950;2022-08-04T05:06:34;101299.81;;;25.52;58.33
20630;BME280;17386;43.846;25.950;2022-08-04T05:09:26;101297.28;;;25.60;60.93
20630;BME280;17386;43.846;25.950;2022-08-04T05:12:54;101299.16;;;25.69;63.46
20630;BME280;17386;43.846;25.950;2022-08-04T05:15:00;101293.72;;;25.69;64.70
20630;BME280;17386;43.846;25.950;2022-08-04T05:17:41;101298.63;;;25.75;64.34
20630;BME280;17386;43.846;25.950;2022-08-04T05:20:19;101294.91;;;25.86;62.35
20630;BME280;17386;43.846;25.950;2022-08-04T05:23:14;101296.22;;;25.91;59.35
20630;BME280;17386;43.846;25.950;2022-08-04T05:26:00;101302.69;;;26.00;58.52
20630;BME280;17386;43.846;25.950;2022-08-04T05:28:42;101302.00;;;26.08;58.47
20630;BME280;17386;43.846;25.950;2022-08-04T05:31:22;101305.28;;;26.21;57.43
20630;BME280;17386;43.846;25.950;2022-08-04T05:34:03;101304.44;;;26.30;57.40
20630;BME280;17386;43.846;25.950;2022-08-04T05:36:47;101307.91;;;26.42;56.94
20630;BME280;17386;43.846;25.950;2022-08-04T05:39:34;101308.91;;;26.51;56.89
20630;BME280;17386;43.846;25.950;2022-08-04T05:42:02;101310.34;;;26.64;56.71
20630;BME280;17386;43.846;25.950;2022-08-04T05:44:31;101316.19;;;26.79;56.36
20630;BME280;17386;43.846;25.950;2022-08-04T05:46:59;101312.59;;;26.88;55.43
20630;BME280;17386;43.846;25.950;2022-08-04T05:49:27;101308.56;;;26.92;54.91
20630;BME280;17386;43.846;25.950;2022-08-04T05:51:58;101309.53;;;27.01;54.86
20630;BME280;17386;43.846;25.950;2022-08-04T05:54:27;101314.88;;;27.12;54.48
20630;BME280;17386;43.846;25.950;2022-08-04T05:56:56;101317.13;;;27.17;55.08
20630;BME280;17386;43.846;25.950;2022-08-04T05:59:24;101311.25;;;27.21;56.23
20630;BME280;17386;43.846;25.950;2022-08-04T06:01:54;101314.97;;;27.20;58.03
20630;BME280;17386;43.846;25.950;2022-08-04T06:04:27;101312.84;;;27.14;59.65
20630;BME280;17386;43.846;25.950;2022-08-04T06:06:56;101315.41;;;27.16;59.23
20630;BME280;17386;43.846;25.950;2022-08-04T06:09:23;101308.25;;;27.15;58.16
20630;BME280;17386;43.846;25.950;2022-08-04T06:11:50;101317.81;;;27.29;57.72
20630;BME280;17386;43.846;25.950;2022-08-04T06:14:22;101315.34;;;27.35;57.51
20630;BME280;17386;43.846;25.950;2022-08-04T06:16:51;101317.16;;;27.44;56.67
20630;BME280;17386;43.846;25.950;2022-08-04T06:19:24;101321.44;;;27.57;54.01
20630;BME280;17386;43.846;25.950;2022-08-04T06:21:53;101320.25;;;27.69;52.42
20630;BME280;17386;43.846;25.950;2022-08-04T06:24:23;101324.88;;;27.86;51.82
20630;BME280;17386;43.846;25.950;2022-08-04T06:26:52;101318.53;;;27.95;50.93
20630;BME280;17386;43.846;25.950;2022-08-04T06:29:20;101311.84;;;28.07;50.83
20630;BME280;17386;43.846;25.950;2022-08-04T06:32:08;101308.47;;;28.14;50.00
20630;BME280;17386;43.846;25.950;2022-08-04T06:34:40;101318.75;;;28.20;49.96
20630;BME280;17386;43.846;25.950;2022-08-04T06:37:09;101315.41;;;28.26;49.76
20630;BME280;17386;43.846;25.950;2022-08-04T06:39:37;101312.38;;;28.29;49.42
20630;BME280;17386;43.846;25.950;2022-08-04T06:42:04;101306.94;;;28.29;49.92
20630;BME280;17386;43.846;25.950;2022-08-04T06:44:31;101314.09;;;28.30;49.90
20630;BME280;17386;43.846;25.950;2022-08-04T06:46:58;101300.53;;;28.38;49.60
20630;BME280;17386;43.846;25.950;2022-08-04T06:49:28;101310.53;;;28.47;49.73
20630;BME280;17386;43.846;25.950;2022-08-04T06:51:57;101310.91;;;28.52;48.99
20630;BME280;17386;43.846;25.950;2022-08-04T06:54:23;101309.09;;;28.61;48.89
20630;BME280;17386;43.846;25.950;2022-08-04T06:56:51;101306.28;;;28.71;48.68
20630;BME280;17386;43.846;25.950;2022-08-04T06:59:19;101298.09;;;28.71;48.46
20630;BME280;17386;43.846;25.950;2022-08-04T07:01:47;101310.28;;;28.76;48.38
20630;BME280;17386;43.846;25.950;2022-08-04T07:04:15;101302.59;;;28.80;48.24
20630;BME280;17386;43.846;25.950;2022-08-04T07:06:41;101302.19;;;28.75;48.76
20630;BME280;17386;43.846;25.950;2022-08-04T07:09:08;101308.13;;;28.88;48.54
20630;BME280;17386;43.846;25.950;2022-08-04T07:11:35;101301.41;;;29.00;48.12
20630;BME280;17386;43.846;25.950;2022-08-04T07:14:03;101307.09;;;29.07;48.69
20630;BME280;17386;43.846;25.950;2022-08-04T07:16:30;101306.97;;;29.16;48.94
20630;BME280;17386;43.846;25.950;2022-08-04T07:18:58;101295.38;;;29.23;48.09
20630;BME280;17386;43.846;25.950;2022-08-04T07:21:24;101306.16;;;29.24;48.01
20630;BME280;17386;43.846;25.950;2022-08-04T07:23:52;101296.59;;;29.28;48.35
20630;BME280;17386;43.846;25.950;2022-08-04T07:26:19;101302.47;;;29.41;47.55
20630;BME280;17386;43.846;25.950;2022-08-04T07:28:52;101297.00;;;29.41;48.35
20630;BME280;17386;43.846;25.950;2022-08-04T07:31:19;101301.28;;;29.44;47.70
20630;BME280;17386;43.846;25.950;2022-08-04T07:33:49;101286.09;;;29.50;47.39
20630;BME280;17386;43.846;25.950;2022-08-04T07:36:15;101294.06;;;29.61;47.05
20630;BME280;17386;43.846;25.950;2022-08-04T07:38:41;101294.94;;;29.69;47.22
20630;BME280;17386;43.846;25.950;2022-08-04T07:41:07;101291.69;;;29.66;46.87
20630;BME280;17386;43.846;25.950;2022-08-04T07:43:37;101276.97;;;29.67;46.73
20630;BME280;17386;43.846;25.950;2022-08-04T07:46:05;101283.13;;;29.77;47.03
20630;BME280;17386;43.846;25.950;2022-08-04T07:48:32;101286.59;;;29.79;47.04
20630;BME280;17386;43.846;25.950;2022-08-04T07:51:00;101287.28;;;29.89;47.27
20630;BME280;17386;43.846;25.950;2022-08-04T07:53:27;101292.09;;;29.95;47.12
20630;BME280;17386;43.846;25.950;2022-08-04T07:55:55;101286.63;;;30.04;46.01
20630;BME280;17386;43.846;25.950;2022-08-04T07:58:21;101289.38;;;30.04;46.19
20630;BME280;17386;43.846;25.950;2022-08-04T08:00:49;101288.19;;;30.06;45.20
20630;BME280;17386;43.846;25.950;2022-08-04T08:03:18;101282.41;;;30.09;45.44
20630;BME280;17386;43.846;25.950;2022-08-04T08:05:45;101288.88;;;30.00;46.01
20630;BME280;17386;43.846;25.950;2022-08-04T08:08:10;101282.94;;;30.13;45.93
20630;BME280;17386;43.846;25.950;2022-08-04T08:10:37;101282.41;;;30.17;46.02
20630;BME280;17386;43.846;25.950;2022-08-04T08:13:03;101294.56;;;30.23;45.83
20630;BME280;17386;43.846;25.950;2022-08-04T08:15:29;101287.75;;;30.27;45.74
20630;BME280;17386;43.846;25.950;2022-08-04T08:17:55;101277.63;;;30.28;45.50
20630;BME280;17386;43.846;25.950;2022-08-04T08:20:22;101284.81;;;30.29;45.65
20630;BME280;17386;43.846;25.950;2022-08-04T08:22:47;101281.03;;;30.38;45.69
20630;BME280;17386;43.846;25.950;2022-08-04T08:25:13;101289.44;;;30.44;45.14
20630;BME280;17386;43.846;25.950;2022-08-04T08:27:38;101288.59;;;30.36;45.81
20630;BME280;17386;43.846;25.950;2022-08-04T08:30:06;101288.25;;;30.47;45.94
20630;BME280;17386;43.846;25.950;2022-08-04T08:32:34;101286.56;;;30.54;44.47
20630;BME280;17386;43.846;25.950;2022-08-04T08:35:01;101281.22;;;30.61;43.73
20630;BME280;17386;43.846;25.950;2022-08-04T08:37:33;101284.66;;;30.63;44.15
20630;BME280;17386;43.846;25.950;2022-08-04T08:43:48;101278.81;;;30.74;44.55
20630;BME280;17386;43.846;25.950;2022-08-04T08:48:58;101283.78;;;30.87;43.96
20630;BME280;17386;43.846;25.950;2022-08-04T09:00:52;101283.06;;;31.01;42.24
20630;BME280;17386;43.846;25.950;2022-08-04T09:09:20;101273.78;;;31.18;40.58
20630;BME280;17386;43.846;25.950;2022-08-04T09:12:00;101266.44;;;31.11;40.47
20630;BME280;17386;43.846;25.950;2022-08-04T09:14:54;101277.84;;;31.22;40.29
20630;BME280;17386;43.846;25.950;2022-08-04T09:20:06;101267.72;;;31.39;39.89
20630;BME280;17386;43.846;25.950;2022-08-04T09:23:03;101261.06;;;31.34;39.40
20630;BME280;17386;43.846;25.950;2022-08-04T09:25:41;101263.47;;;31.37;39.65
20630;BME280;17386;43.846;25.950;2022-08-04T09:28:19;101263.28;;;31.38;39.08
20630;BME280;17386;43.846;25.950;2022-08-04T09:31:01;101257.31;;;31.18;40.21
20630;BME280;17386;43.846;25.950;2022-08-04T09:33:58;101237.59;;;31.23;40.12
20630;BME280;17386;43.846;25.950;2022-08-04T09:36:55;101260.31;;;31.48;39.86
20630;BME280;17386;43.846;25.950;2022-08-04T09:39:45;101251.44;;;31.69;39.13
20630;BME280;17386;43.846;25.950;2022-08-04T09:42:40;101258.59;;;31.86;38.39
20630;BME280;17386;43.846;25.950;2022-08-04T09:45:31;101261.81;;;31.90;38.10
20630;BME280;17386;43.846;25.950;2022-08-04T09:48:08;101258.41;;;32.10;37.65
20630;BME280;17386;43.846;25.950;2022-08-04T09:50:40;101246.63;;;32.25;37.43
20630;BME280;17386;43.846;25.950;2022-08-04T09:56:13;101247.78;;;32.53;37.37
20630;BME280;17386;43.846;25.950;2022-08-04T10:01:51;101246.16;;;32.59;37.31
20630;BME280;17386;43.846;25.950;2022-08-04T10:04:19;101244.38;;;32.66;36.93
20630;BME280;17386;43.846;25.950;2022-08-04T10:15:16;101234.81;;;33.65;35.17
20630;BME280;17386;43.846;25.950;2022-08-04T10:23:48;101237.47;;;35.56;31.63
20630;BME280;17386;43.846;25.950;2022-08-04T10:29:36;101227.78;;;37.13;29.17
20630;BME280;17386;43.846;25.950;2022-08-04T10:32:19;101232.09;;;37.09;29.08
20630;BME280;17386;43.846;25.950;2022-08-04T10:35:15;101221.38;;;37.25;28.85
20630;BME280;17386;43.846;25.950;2022-08-04T10:38:11;101225.00;;;37.77;27.74
20630;BME280;17386;43.846;25.950;2022-08-04T10:46:30;101225.03;;;39.27;25.54
20630;BME280;17386;43.846;25.950;2022-08-04T10:49:03;101226.47;;;39.48;24.87
20630;BME280;17386;43.846;25.950;2022-08-04T10:51:52;101213.50;;;39.24;25.60
20630;BME280;17386;43.846;25.950;2022-08-04T10:57:11;101212.78;;;39.65;24.79
20630;BME280;17386;43.846;25.950;2022-08-04T10:59:46;101214.59;;;39.71;24.94
20630;BME280;17386;43.846;25.950;2022-08-04T11:02:36;101201.44;;;39.48;25.02
20630;BME280;17386;43.846;25.950;2022-08-04T11:05:29;101204.72;;;40.05;24.22
20630;BME280;17386;43.846;25.950;2022-08-04T11:08:04;101199.22;;;40.52;23.71
20630;BME280;17386;43.846;25.950;2022-08-04T11:10:44;101205.88;;;40.74;23.00
20630;BME280;17386;43.846;25.950;2022-08-04T11:13:15;101202.72;;;40.94;22.81
20630;BME280;17386;43.846;25.950;2022-08-04T11:16:05;101202.59;;;41.13;22.98
20630;BME280;17386;43.846;25.950;2022-08-04T11:19:07;101194.75;;;41.38;22.59
20630;BME280;17386;43.846;25.950;2022-08-04T11:21:44;101188.50;;;41.19;22.35
20630;BME280;17386;43.846;25.950;2022-08-04T11:30:24;101176.53;;;39.23;24.24
20630;BME280;17386;43.846;25.950;2022-08-04T11:36:23;101175.31;;;38.08;25.52
20630;BME280;17386;43.846;25.950;2022-08-04T11:39:10;101171.97;;;37.61;26.01
20630;BME280;17386;43.846;25.950;2022-08-04T11:42:00;101178.41;;;37.10;26.74
20630;BME280;17386;43.846;25.950;2022-08-04T11:44:54;101177.88;;;36.48;27.50
20630;BME280;17386;43.846;25.950;2022-08-04T11:47:54;101177.44;;;36.31;27.51
20630;BME280;17386;43.846;25.950;2022-08-04T11:50:32;101171.47;;;36.01;27.94
20630;BME280;17386;43.846;25.950;2022-08-04T11:53:01;101166.03;;;35.53;28.69
20630;BME280;17386;43.846;25.950;2022-08-04T11:55:30;101165.09;;;35.33;28.93
20630;BME280;17386;43.846;25.950;2022-08-04T11:57:58;101155.88;;;35.13;28.64
20630;BME280;17386;43.846;25.950;2022-08-04T12:00:27;101155.13;;;34.91;29.11
20630;BME280;17386;43.846;25.950;2022-08-04T12:06:12;101152.28;;;34.77;29.52
20630;BME280;17386;43.846;25.950;2022-08-04T12:14:13;101139.97;;;33.96;30.34
20630;BME280;17386;43.846;25.950;2022-08-04T12:17:07;101148.50;;;33.80;31.31
20630;BME280;17386;43.846;25.950;2022-08-04T12:19:51;101150.66;;;33.63;31.16
20630;BME280;17386;43.846;25.950;2022-08-04T12:22:21;101143.38;;;33.55;31.70
20630;BME280;17386;43.846;25.950;2022-08-04T12:24:59;101143.38;;;33.55;31.75
20630;BME280;17386;43.846;25.950;2022-08-04T12:30:35;101129.22;;;34.01;32.04
20630;BME280;17386;43.846;25.950;2022-08-04T12:33:19;101129.13;;;34.16;30.64
20630;BME280;17386;43.846;25.950;2022-08-04T12:35:57;101130.19;;;34.15;30.53
20630;BME280;17386;43.846;25.950;2022-08-04T12:38:26;101127.00;;;34.11;30.45
20630;BME280;17386;43.846;25.950;2022-08-04T12:40:56;101116.34;;;33.87;31.01
20630;BME280;17386;43.846;25.950;2022-08-04T12:43:38;101121.78;;;33.80;31.66
20630;BME280;17386;43.846;25.950;2022-08-04T12:46:09;101119.03;;;33.80;31.52
20630;BME280;17386;43.846;25.950;2022-08-04T12:48:37;101118.34;;;33.93;31.37
20630;BME280;17386;43.846;25.950;2022-08-04T12:51:08;101115.19;;;33.96;30.97
20630;BME280;17386;43.846;25.950;2022-08-04T12:53:39;101110.97;;;34.00;30.74
20630;BME280;17386;43.846;25.950;2022-08-04T12:56:08;101103.63;;;34.07;30.94
20630;BME280;17386;43.846;25.950;2022-08-04T12:58:44;101106.16;;;34.09;31.23
20630;BME280;17386;43.846;25.950;2022-08-04T13:01:21;101110.34;;;33.98;30.61
20630;BME280;17386;43.846;25.950;2022-08-04T13:03:58;101110.56;;;33.82;30.70
20630;BME280;17386;43.846;25.950;2022-08-04T13:06:33;101115.38;;;33.73;30.84
20630;BME280;17386;43.846;25.950;2022-08-04T13:09:10;101121.94;;;33.51;31.02
20630;BME280;17386;43.846;25.950;2022-08-04T13:11:42;101108.66;;;33.39;30.90
20630;BME280;17386;43.846;25.950;2022-08-04T13:14:11;101111.31;;;33.33;31.29
20630;BME280;17386;43.846;25.950;2022-08-04T13:16:38;101104.03;;;33.25;31.63
20630;BME280;17386;43.846;25.950;2022-08-04T13:19:07;101112.50;;;33.24;31.39
20630;BME280;17386;43.846;25.950;2022-08-04T13:21:40;101109.53;;;33.25;31.61
20630;BME280;17386;43.846;25.950;2022-08-04T13:24:11;101111.06;;;33.42;31.54
20630;BME280;17386;43.846;25.950;2022-08-04T13:27:01;101101.38;;;33.74;31.09
20630;BME280;17386;43.846;25.950;2022-08-04T13:29:48;101099.75;;;34.01;30.77
20630;BME280;17386;43.846;25.950;2022-08-04T13:32:18;101092.13;;;34.04;30.85
20630;BME280;17386;43.846;25.950;2022-08-04T13:34:51;101092.94;;;33.97;30.60
20630;BME280;17386;43.846;25.950;2022-08-04T13:37:22;101101.72;;;33.86;30.44
20630;BME280;17386;43.846;25.950;2022-08-04T13:39:50;101094.72;;;33.84;30.69
20630;BME280;17386;43.846;25.950;2022-08-04T13:42:18;101091.47;;;33.80;30.40
20630;BME280;17386;43.846;25.950;2022-08-04T13:44:48;101082.31;;;33.73;30.43
20630;BME280;17386;43.846;25.950;2022-08-04T13:47:26;101085.44;;;33.48;31.33
20630;BME280;17386;43.846;25.950;2022-08-04T13:50:21;101084.28;;;33.58;30.55
20630;BME280;17386;43.846;25.950;2022-08-04T13:53:00;101069.84;;;33.56;30.29
20630;BME280;17386;43.846;25.950;2022-08-04T13:55:34;101073.56;;;33.69;29.78
20630;BME280;17386;43.846;25.950;2022-08-04T14:03:15;101077.50;;;34.03;29.62
20630;BME280;17386;43.846;25.950;2022-08-04T14:06:16;101077.44;;;34.52;28.41
20630;BME280;17386;43.846;25.950;2022-08-04T14:08:49;101068.03;;;36.35;26.58
20630;BME280;17386;43.846;25.950;2022-08-04T14:11:19;101061.88;;;38.43;24.25
20630;BME280;17386;43.846;25.950;2022-08-04T14:13:47;101061.41;;;39.01;23.22
20630;BME280;17386;43.846;25.950;2022-08-04T14:16:18;101066.91;;;39.49;22.37
20630;BME280;17386;43.846;25.950;2022-08-04T14:18:48;101058.25;;;38.61;22.84
20630;BME280;17386;43.846;25.950;2022-08-04T14:21:22;101049.44;;;37.52;24.08
20630;BME280;17386;43.846;25.950;2022-08-04T14:23:53;101063.09;;;36.64;25.03
20630;BME280;17386;43.846;25.950;2022-08-04T14:26:34;101054.28;;;35.96;26.58
20630;BME280;17386;43.846;25.950;2022-08-04T14:29:14;101060.78;;;35.22;26.90
20630;BME280;17386;43.846;25.950;2022-08-04T14:31:41;101059.63;;;34.96;26.60
20630;BME280;17386;43.846;25.950;2022-08-04T14:34:08;101058.22;;;34.72;27.37
20630;BME280;17386;43.846;25.950;2022-08-04T14:36:42;101064.34;;;34.61;27.69
20630;BME280;17386;43.846;25.950;2022-08-04T14:39:09;101059.38;;;34.50;27.29
20630;BME280;17386;43.846;25.950;2022-08-04T14:41:48;101052.91;;;34.36;27.64
20630;BME280;17386;43.846;25.950;2022-08-04T14:44:15;101056.25;;;34.25;28.11
20630;BME280;17386;43.846;25.950;2022-08-04T14:46:53;101050.44;;;34.13;28.13
20630;BME280;17386;43.846;25.950;2022-08-04T14:49:21;101058.63;;;34.00;28.35
20630;BME280;17386;43.846;25.950;2022-08-04T14:51:58;101046.72;;;33.99;27.42
20630;BME280;17386;43.846;25.950;2022-08-04T14:54:34;101042.22;;;33.92;27.69
20630;BME280;17386;43.846;25.950;2022-08-04T14:57:04;101040.97;;;33.94;27.60
20630;BME280;17386;43.846;25.950;2022-08-04T14:59:42;101039.06;;;33.95;27.51
20630;BME280;17386;43.846;25.950;2022-08-04T15:02:09;101037.22;;;33.81;28.28
20630;BME280;17386;43.846;25.950;2022-08-04T15:04:38;101030.88;;;33.80;27.83
20630;BME280;17386;43.846;25.950;2022-08-04T15:07:04;101028.56;;;33.84;28.19
20630;BME280;17386;43.846;25.950;2022-08-04T15:09:31;101026.34;;;33.72;27.27
20630;BME280;17386;43.846;25.950;2022-08-04T15:11:57;101035.91;;;33.77;28.23
20630;BME280;17386;43.846;25.950;2022-08-04T15:14:24;101030.81;;;33.73;27.62
20630;BME280;17386;43.846;25.950;2022-08-04T15:16:51;101030.97;;;33.65;28.41
20630;BME280;17386;43.846;25.950;2022-08-04T15:19:17;101027.72;;;33.62;28.04
20630;BME280;17386;43.846;25.950;2022-08-04T15:21:44;101030.69;;;33.60;28.09
20630;BME280;17386;43.846;25.950;2022-08-04T15:24:09;101029.59;;;33.55;28.22
20630;BME280;17386;43.846;25.950;2022-08-04T15:26:41;101029.72;;;33.46;28.28
20630;BME280;17386;43.846;25.950;2022-08-04T15:29:15;101021.50;;;33.32;27.74
20630;BME280;17386;43.846;25.950;2022-08-04T15:31:43;101031.41;;;33.26;28.13
20630;BME280;17386;43.846;25.950;2022-08-04T15:34:11;101032.19;;;33.20;28.53
20630;BME280;17386;43.846;25.950;2022-08-04T15:36:56;101024.91;;;33.12;27.96
20630;BME280;17386;43.846;25.950;2022-08-04T15:39:44;101026.72;;;33.05;28.44
20630;BME280;17386;43.846;25.950;2022-08-04T15:42:20;101022.00;;;32.99;28.89
20630;BME280;17386;43.846;25.950;2022-08-04T15:44:56;101017.94;;;32.95;28.65
20630;BME280;17386;43.846;25.950;2022-08-04T15:47:24;101011.31;;;32.89;28.74
20630;BME280;17386;43.846;25.950;2022-08-04T15:50:10;101024.03;;;32.90;28.90
20630;BME280;17386;43.846;25.950;2022-08-04T15:53:10;101022.03;;;32.84;29.71
20630;BME280;17386;43.846;25.950;2022-08-04T15:55:42;101009.44;;;32.75;29.00
20630;BME280;17386;43.846;25.950;2022-08-04T15:58:10;101024.47;;;32.79;29.63
20630;BME280;17386;43.846;25.950;2022-08-04T16:03:42;101031.69;;;32.80;29.82
20630;BME280;17386;43.846;25.950;2022-08-04T16:16:43;101026.13;;;32.59;30.60
20630;BME280;17386;43.846;25.950;2022-08-04T16:22:56;101027.38;;;32.56;30.32
20630;BME280;17386;43.846;25.950;2022-08-04T16:25:43;101021.78;;;32.50;30.72
20630;BME280;17386;43.846;25.950;2022-08-04T16:28:40;101027.00;;;32.45;30.58
20630;BME280;17386;43.846;25.950;2022-08-04T16:31:11;101021.06;;;32.41;31.16
20630;BME280;17386;43.846;25.950;2022-08-04T16:33:38;101024.84;;;32.40;31.33
20630;BME280;17386;43.846;25.950;2022-08-04T16:36:07;101026.16;;;32.44;31.81
20630;BME280;17386;43.846;25.950;2022-08-04T16:39:00;101027.69;;;32.47;32.10
20630;BME280;17386;43.846;25.950;2022-08-04T16:41:40;101030.59;;;32.45;32.17
20630;BME280;17386;43.846;25.950;2022-08-04T16:44:37;101027.75;;;32.38;32.80
20630;BME280;17386;43.846;25.950;2022-08-04T16:47:08;101030.78;;;32.29;33.32
20630;BME280;17386;43.846;25.950;2022-08-04T16:49:35;101027.19;;;32.28;33.11
20630;BME280;17386;43.846;25.950;2022-08-04T16:52:07;101034.28;;;32.08;33.29
20630;BME280;17386;43.846;25.950;2022-08-04T16:54:34;101037.38;;;32.05;34.03
20630;BME280;17386;43.846;25.950;2022-08-04T16:57:10;101036.38;;;32.06;33.77
20630;BME280;17386;43.846;25.950;2022-08-04T16:59:37;101039.88;;;32.00;34.35
20630;BME280;17386;43.846;25.950;2022-08-04T17:02:06;101039.03;;;31.99;33.91
20630;BME280;17386;43.846;25.950;2022-08-04T17:04:35;101040.63;;;31.94;34.07
20630;BME280;17386;43.846;25.950;2022-08-04T17:07:03;101037.75;;;31.87;34.52
20630;BME280;17386;43.846;25.950;2022-08-04T17:09:30;101048.63;;;31.80;34.46
20630;BME280;17386;43.846;25.950;2022-08-04T17:11:58;101053.59;;;31.77;34.80
20630;BME280;17386;43.846;25.950;2022-08-04T17:14:28;101045.75;;;31.74;34.86
20630;BME280;17386;43.846;25.950;2022-08-04T17:17:00;101047.66;;;31.73;35.15
20630;BME280;17386;43.846;25.950;2022-08-04T17:19:27;101041.38;;;31.65;35.04
20630;BME280;17386;43.846;25.950;2022-08-04T17:21:59;101048.94;;;31.63;35.34
20630;BME280;17386;43.846;25.950;2022-08-04T17:24:27;101040.41;;;31.57;35.36
20630;BME280;17386;43.846;25.950;2022-08-04T17:26:56;101048.81;;;31.56;35.51
20630;BME280;17386;43.846;25.950;2022-08-04T17:29:26;101055.34;;;31.55;35.77
20630;BME280;17386;43.846;25.950;2022-08-04T17:31:55;101057.97;;;31.48;35.97
20630;BME280;17386;43.846;25.950;2022-08-04T17:34:22;101052.88;;;31.45;36.07